Rancho Dominguez, California
Current Conditions -  °F | °C
As of 8:53 AM on Sunday 23 Nov 2014 (Local Time) from KHHR Reporting Station
Clear Clear  
Wind Chill: 62°   Ceiling: Unl
Heat Index: 62°   Visibility: 9mi
Dew Point: 54°   Wind: 0mph
Humidity: 75%   Direction: NA
Pressure: 30.15"   Gusts: NA
Location:  33.8732°N, 118.264°W
Report Text: KHHR 231653Z 00000KT 9SM CLR 17/12 A3015 RMK AO2 SLP207 T01670122
Loading
Personal Weather Stations






























Interactive Weather Map New forecast layout! Learn more

10-Day Weather Forecast

Advertisements
Track Severe Weather on mobile